createdAt,value
2019-05-19T00:00:12.027Z,82.76
2019-05-19T00:02:41.420Z,82.98
2019-05-19T00:05:11.056Z,82.70
2019-05-19T00:07:42.546Z,83.77
2019-05-19T00:10:12.751Z,83.79
2019-05-19T00:12:42.172Z,84.50
2019-05-19T00:15:12.505Z,85.26
2019-05-19T00:17:41.920Z,84.58
2019-05-19T00:20:11.446Z,84.51
2019-05-19T00:22:40.941Z,83.87
2019-05-19T00:25:10.684Z,84.18
2019-05-19T00:27:40.133Z,83.90
2019-05-19T00:30:10.838Z,84.64
2019-05-19T00:32:40.271Z,85.00
2019-05-19T00:35:09.815Z,85.06
2019-05-19T00:37:39.242Z,84.69
2019-05-19T00:40:09.181Z,84.54
2019-05-19T00:42:38.642Z,84.68
2019-05-19T00:45:09.164Z,85.17
2019-05-19T00:47:38.674Z,84.83
2019-05-19T00:50:08.740Z,85.40
2019-05-19T00:52:38.169Z,85.42
2019-05-19T00:55:08.180Z,84.90
2019-05-19T00:57:38.143Z,84.45
2019-05-19T01:00:09.608Z,84.68
2019-05-19T01:02:39.022Z,85.00
2019-05-19T01:05:08.864Z,85.66
2019-05-19T01:07:38.269Z,85.38
2019-05-19T01:10:09.213Z,85.15
2019-05-19T01:12:38.649Z,84.85
2019-05-19T01:15:09.655Z,84.96
2019-05-19T01:17:39.073Z,84.64
2019-05-19T01:20:09.722Z,84.96
2019-05-19T01:22:39.127Z,85.35
2019-05-19T01:25:08.949Z,85.37
2019-05-19T01:27:38.357Z,85.15
2019-05-19T01:30:10.532Z,85.05
2019-05-19T01:32:39.913Z,84.90
2019-05-19T01:35:09.379Z,84.84
2019-05-19T01:37:38.789Z,84.87
2019-05-19T01:40:10.118Z,85.13
2019-05-19T01:42:39.549Z,85.19
2019-05-19T01:45:09.979Z,85.15
2019-05-19T01:47:39.383Z,85.11
2019-05-19T01:50:17.520Z,85.02
2019-05-19T01:52:41.923Z,85.51
2019-05-19T01:55:12.585Z,85.65
2019-05-19T01:57:41.986Z,85.72
2019-05-19T02:00:12.757Z,85.68
2019-05-19T02:02:42.172Z,85.65
2019-05-19T02:05:11.655Z,85.54
2019-05-19T02:07:41.055Z,85.70
2019-05-19T02:10:11.002Z,86.03
2019-05-19T02:12:40.391Z,85.98
2019-05-19T02:15:11.078Z,85.62
2019-05-19T02:17:40.471Z,85.64
2019-05-19T02:20:10.341Z,86.20
2019-05-19T02:22:39.735Z,86.46
2019-05-19T02:25:09.798Z,86.54
2019-05-19T02:27:39.284Z,86.12
2019-05-19T02:30:09.956Z,86.31
2019-05-19T02:32:39.432Z,86.11
2019-05-19T02:35:09.401Z,85.96
2019-05-19T02:37:38.878Z,85.86
2019-05-19T02:40:08.433Z,85.85
2019-05-19T02:42:41.068Z,85.69
2019-05-19T02:45:12.672Z,85.90
2019-05-19T02:47:43.753Z,85.89
2019-05-19T02:50:13.977Z,85.67
2019-05-19T02:52:46.368Z,86.22
2019-05-19T02:55:17.035Z,86.11
2019-05-19T02:57:48.605Z,86.32
2019-05-19T03:00:19.759Z,86.38
2019-05-19T03:02:49.265Z,86.33
2019-05-19T03:05:18.734Z,86.43
2019-05-19T03:07:48.148Z,86.54
2019-05-19T03:10:17.577Z,86.56
2019-05-19T03:12:46.980Z,86.64
2019-05-19T03:15:16.409Z,86.41
2019-05-19T03:17:45.816Z,86.27
2019-05-19T03:20:15.406Z,86.19
2019-05-19T03:22:44.925Z,86.14
2019-05-19T03:25:14.552Z,86.30
2019-05-19T03:27:43.975Z,86.77
2019-05-19T03:30:33.589Z,86.74
2019-05-19T03:33:10.306Z,86.93
2019-05-19T03:35:39.765Z,86.57
2019-05-19T03:38:09.146Z,86.28
2019-05-19T03:40:38.563Z,86.31
2019-05-19T03:43:07.968Z,86.55
2019-05-19T03:45:37.396Z,86.40
2019-05-19T03:48:06.848Z,86.08
2019-05-19T03:50:36.269Z,85.86
2019-05-19T03:53:05.740Z,86.51
2019-05-19T03:55:35.163Z,86.21
2019-05-19T03:58:04.644Z,86.63
2019-05-19T04:00:34.076Z,86.66
2019-05-19T04:03:04.312Z,86.63
2019-05-19T04:05:33.795Z,86.83
2019-05-19T04:08:03.225Z,86.62
2019-05-19T04:10:32.633Z,86.40
2019-05-19T04:13:02.114Z,85.98
2019-05-19T04:15:31.468Z,86.02
2019-05-19T04:18:00.894Z,86.28
2019-05-19T04:20:30.303Z,86.54
2019-05-19T04:22:59.730Z,86.22
2019-05-19T04:25:29.136Z,85.65
2019-05-19T04:27:58.745Z,86.00
2019-05-19T04:30:28.160Z,86.50
2019-05-19T04:32:57.653Z,86.54
2019-05-19T04:35:27.071Z,86.31
2019-05-19T04:37:58.362Z,85.92
2019-05-19T04:40:27.789Z,85.63
2019-05-19T04:42:57.214Z,85.46
2019-05-19T04:45:26.645Z,85.67
2019-05-19T04:47:56.053Z,85.54
2019-05-19T04:50:25.498Z,85.14
2019-05-19T04:52:55.026Z,84.81
2019-05-19T04:55:24.531Z,84.56
2019-05-19T04:57:53.959Z,84.52
2019-05-19T05:00:23.341Z,84.56
2019-05-19T05:02:52.760Z,84.53
2019-05-19T05:05:25.602Z,84.27
2019-05-19T05:07:55.027Z,83.89
2019-05-19T05:10:24.447Z,83.44
2019-05-19T05:12:53.874Z,83.24
2019-05-19T05:15:23.296Z,83.45
2019-05-19T05:17:52.727Z,82.92
2019-05-19T05:20:22.142Z,82.31
2019-05-19T05:22:52.813Z,81.75
2019-05-19T05:25:22.215Z,82.01
2019-05-19T05:27:51.648Z,81.83
2019-05-19T05:30:21.177Z,81.47
2019-05-19T05:32:50.842Z,81.04
2019-05-19T05:35:20.271Z,80.58
2019-05-19T05:37:49.706Z,80.03
2019-05-19T05:40:19.186Z,79.15
2019-05-19T05:42:48.618Z,78.43
2019-05-19T05:45:18.194Z,77.38
2019-05-19T05:47:47.594Z,77.05
2019-05-19T05:50:17.267Z,76.45
2019-05-19T05:52:46.686Z,76.30
2019-05-19T05:55:16.396Z,75.63
2019-05-19T05:57:45.794Z,75.51
2019-05-19T06:00:16.127Z,75.28
2019-05-19T06:02:45.587Z,74.61
2019-05-19T06:05:15.181Z,73.99
2019-05-19T06:07:44.607Z,70.69
2019-05-19T06:10:14.358Z,69.41
2019-05-19T06:12:43.875Z,68.59
2019-05-19T06:15:13.581Z,67.66
2019-05-19T06:17:42.990Z,66.26
2019-05-19T06:20:12.653Z,64.51
2019-05-19T06:22:55.069Z,62.54
2019-05-19T06:25:13.326Z,63.35
2019-05-19T06:27:42.715Z,62.69
2019-05-19T06:30:12.553Z,60.00
2019-05-19T06:32:43.596Z,59.27
2019-05-19T06:35:13.353Z,59.68
2019-05-19T06:37:42.770Z,60.76
2019-05-19T06:40:12.913Z,59.95
2019-05-19T06:42:42.326Z,59.13
2019-05-19T06:45:12.227Z,59.59
2019-05-19T06:47:41.719Z,58.49
2019-05-19T06:50:11.654Z,59.37
2019-05-19T06:52:41.167Z,57.17
2019-05-19T06:55:11.018Z,57.10
2019-05-19T06:57:40.415Z,57.06
2019-05-19T07:00:10.381Z,55.72
2019-05-19T07:02:39.806Z,54.01
2019-05-19T07:05:09.936Z,52.37
2019-05-19T07:07:39.392Z,50.21
2019-05-19T07:10:09.624Z,47.33
2019-05-19T07:12:39.041Z,47.36
2019-05-19T07:15:09.179Z,49.82
2019-05-19T07:17:38.595Z,51.11
2019-05-19T07:20:08.340Z,54.01
2019-05-19T07:22:37.883Z,55.52
2019-05-19T07:25:07.579Z,56.39
2019-05-19T07:27:36.998Z,56.59
2019-05-19T07:30:06.964Z,58.29
2019-05-19T07:32:36.385Z,58.84
2019-05-19T07:35:06.947Z,58.02
2019-05-19T07:37:36.345Z,57.08
2019-05-19T07:40:06.398Z,58.09
2019-05-19T07:42:35.925Z,56.30
2019-05-19T07:45:06.270Z,54.92
2019-05-19T07:47:35.756Z,53.72
2019-05-19T07:50:06.310Z,53.37
2019-05-19T07:52:35.729Z,51.88
2019-05-19T07:55:07.977Z,51.36
2019-05-19T07:57:37.384Z,49.47
2019-05-19T08:00:08.754Z,49.37
2019-05-19T08:02:38.269Z,48.62
2019-05-19T08:05:07.744Z,47.25
2019-05-19T08:07:37.300Z,48.18
2019-05-19T08:10:07.460Z,47.92
2019-05-19T08:12:36.962Z,47.00
2019-05-19T08:15:07.834Z,46.54
2019-05-19T08:17:37.262Z,45.98
2019-05-19T08:20:07.712Z,47.92
2019-05-19T08:22:37.175Z,48.04
2019-05-19T08:25:08.521Z,49.40
2019-05-19T08:27:37.958Z,49.26
2019-05-19T08:30:07.781Z,50.28
2019-05-19T08:32:37.209Z,50.65
2019-05-19T08:35:07.388Z,47.71
2019-05-19T08:37:36.785Z,47.40
2019-05-19T08:40:06.749Z,48.14
2019-05-19T08:42:36.264Z,48.48
2019-05-19T08:45:08.112Z,50.86
2019-05-19T08:47:37.497Z,50.54
2019-05-19T08:50:07.853Z,52.40
2019-05-19T08:52:37.286Z,54.55
2019-05-19T08:55:07.043Z,54.31
2019-05-19T08:57:36.508Z,55.64
2019-05-19T09:00:07.121Z,54.65
2019-05-19T09:02:36.548Z,55.79
2019-05-19T09:05:07.127Z,56.50
2019-05-19T09:07:36.538Z,57.29
2019-05-19T09:10:07.901Z,57.31
2019-05-19T09:12:38.453Z,59.34
2019-05-19T09:15:08.023Z,59.50
2019-05-19T09:17:37.440Z,59.43
2019-05-19T09:20:07.175Z,59.02
2019-05-19T09:22:36.624Z,58.16
2019-05-19T09:25:07.664Z,57.68
2019-05-19T09:27:37.162Z,57.06
2019-05-19T09:30:08.700Z,54.14
2019-05-19T09:32:38.258Z,51.62
2019-05-19T09:35:08.129Z,51.33
2019-05-19T09:37:37.546Z,49.03
2019-05-19T09:40:08.838Z,47.25
2019-05-19T09:42:38.258Z,45.12
2019-05-19T09:45:09.890Z,46.25
2019-05-19T09:47:39.450Z,47.72
2019-05-19T09:50:09.477Z,46.78
2019-05-19T09:52:38.984Z,48.60
2019-05-19T09:55:11.692Z,48.33
2019-05-19T09:57:41.065Z,49.15
2019-05-19T10:00:11.032Z,49.46
2019-05-19T10:02:40.436Z,50.15
2019-05-19T10:05:11.089Z,49.00
2019-05-19T10:07:40.508Z,50.52
2019-05-19T10:10:12.737Z,51.49
2019-05-19T10:12:42.209Z,51.64
2019-05-19T10:15:11.961Z,52.81
2019-05-19T10:17:41.389Z,53.40
2019-05-19T10:20:12.056Z,52.88
2019-05-19T10:22:41.449Z,53.85
2019-05-19T10:25:21.867Z,52.91
2019-05-19T10:27:42.155Z,52.50
2019-05-19T10:30:12.411Z,53.75
2019-05-19T10:32:41.845Z,53.37
2019-05-19T10:35:11.684Z,51.46
2019-05-19T10:37:41.101Z,51.94
2019-05-19T10:40:10.809Z,51.62
2019-05-19T10:42:40.230Z,51.34
2019-05-19T10:45:11.587Z,52.36
2019-05-19T10:47:41.004Z,52.80
2019-05-19T10:50:10.827Z,52.19
2019-05-19T10:52:40.253Z,51.59
2019-05-19T10:55:09.924Z,52.76
2019-05-19T10:57:39.505Z,52.37
2019-05-19T11:00:09.670Z,52.97
2019-05-19T11:02:39.083Z,51.85
2019-05-19T11:05:11.180Z,51.90
2019-05-19T11:07:41.998Z,51.89
2019-05-19T11:10:11.914Z,52.98
2019-05-19T11:12:41.344Z,53.97
2019-05-19T11:15:11.383Z,54.33
2019-05-19T11:17:40.879Z,54.31
2019-05-19T11:20:10.369Z,54.51
2019-05-19T11:22:39.805Z,55.75
2019-05-19T11:25:09.438Z,55.71
2019-05-19T11:27:38.834Z,56.44
2019-05-19T11:30:08.595Z,58.12
2019-05-19T11:32:37.989Z,59.00
2019-05-19T11:35:07.518Z,58.99
2019-05-19T11:37:36.960Z,59.18
2019-05-19T11:40:06.527Z,59.64
2019-05-19T11:42:38.741Z,59.53
2019-05-19T11:45:08.796Z,59.64
2019-05-19T11:47:38.247Z,59.71
2019-05-19T11:50:08.008Z,58.79
2019-05-19T11:52:37.463Z,59.34
2019-05-19T11:55:07.227Z,59.20
2019-05-19T11:57:36.694Z,58.77
2019-05-19T12:00:07.364Z,57.57
2019-05-19T12:02:36.767Z,57.69
2019-05-19T12:05:06.526Z,58.22
2019-05-19T12:07:36.026Z,57.07
2019-05-19T12:10:08.867Z,57.84
2019-05-19T12:12:38.319Z,56.08
2019-05-19T12:15:09.411Z,55.99
2019-05-19T12:17:38.805Z,55.98
2019-05-19T12:20:08.769Z,56.30
2019-05-19T12:22:38.278Z,55.50
2019-05-19T12:25:08.029Z,54.53
2019-05-19T12:27:37.561Z,54.38
2019-05-19T12:30:08.642Z,53.53
2019-05-19T12:32:38.086Z,54.11
2019-05-19T12:35:07.578Z,55.34
2019-05-19T12:37:37.000Z,55.02
2019-05-19T12:40:07.032Z,56.32
2019-05-19T12:42:36.491Z,56.15
2019-05-19T12:45:07.425Z,55.12
2019-05-19T12:47:37.081Z,55.02
2019-05-19T12:50:08.095Z,54.12
2019-05-19T12:52:37.596Z,53.71
2019-05-19T12:55:07.864Z,54.71
2019-05-19T12:57:37.343Z,55.66
2019-05-19T13:00:07.193Z,54.62
2019-05-19T13:02:38.228Z,54.42
2019-05-19T13:05:08.249Z,55.33
2019-05-19T13:07:37.663Z,55.62
2019-05-19T13:10:07.901Z,55.62
2019-05-19T13:12:37.311Z,55.62
2019-05-19T13:15:08.748Z,55.05
2019-05-19T13:17:38.155Z,53.19
2019-05-19T13:20:08.116Z,52.01
2019-05-19T13:22:37.526Z,52.22
2019-05-19T13:25:07.316Z,51.11
2019-05-19T13:27:37.443Z,52.25
2019-05-19T13:30:10.701Z,52.63
2019-05-19T13:32:40.131Z,50.68
2019-05-19T13:35:09.693Z,51.37
2019-05-19T13:37:39.137Z,50.99
2019-05-19T13:40:09.312Z,51.23
2019-05-19T13:42:38.728Z,51.63
2019-05-19T13:45:08.759Z,51.32
2019-05-19T13:47:38.203Z,53.56
2019-05-19T13:50:08.916Z,53.45
2019-05-19T13:52:38.744Z,53.06
2019-05-19T13:55:09.475Z,52.34
2019-05-19T13:57:39.058Z,50.71
2019-05-19T14:00:09.160Z,50.26
2019-05-19T14:02:38.820Z,51.25
2019-05-19T14:05:08.531Z,48.36
2019-05-19T14:07:37.983Z,47.93
2019-05-19T14:10:08.428Z,45.04
2019-05-19T14:12:37.850Z,45.09
2019-05-19T14:15:07.437Z,45.27
2019-05-19T14:17:36.854Z,43.82
2019-05-19T14:20:07.917Z,43.26
2019-05-19T14:22:37.682Z,43.94
2019-05-19T14:25:07.268Z,42.29
2019-05-19T14:27:36.817Z,42.27
2019-05-19T14:30:07.562Z,41.36
2019-05-19T14:32:36.970Z,38.75
2019-05-19T14:35:07.309Z,41.96
2019-05-19T14:37:36.724Z,42.30
2019-05-19T14:40:06.856Z,42.46
2019-05-19T14:42:54.377Z,41.66
2019-05-19T14:45:23.922Z,39.87
2019-05-19T14:47:53.409Z,40.81
2019-05-19T14:50:22.811Z,42.71
2019-05-19T14:52:52.227Z,44.26
2019-05-19T14:55:21.985Z,44.23
2019-05-19T14:57:51.567Z,42.89
2019-05-19T15:00:21.408Z,43.52
2019-05-19T15:02:50.859Z,44.14
2019-05-19T15:05:20.281Z,44.17
2019-05-19T15:07:49.733Z,44.59
2019-05-19T15:10:19.396Z,43.20
2019-05-19T15:12:48.896Z,42.72
2019-05-19T15:15:18.455Z,43.74
2019-05-19T15:17:47.856Z,45.59
2019-05-19T15:20:18.335Z,46.50
2019-05-19T15:22:47.800Z,48.48
2019-05-19T15:25:17.450Z,47.19
2019-05-19T15:27:59.238Z,44.84
2019-05-19T15:30:18.506Z,46.45
2019-05-19T15:32:48.182Z,45.96
2019-05-19T15:35:17.770Z,44.00
2019-05-19T15:37:47.168Z,45.54
2019-05-19T15:40:16.931Z,45.13
2019-05-19T15:42:46.337Z,45.68
2019-05-19T15:45:16.189Z,46.01
2019-05-19T15:47:45.588Z,45.77
2019-05-19T15:50:15.549Z,43.97
2019-05-19T15:52:45.070Z,44.41
2019-05-19T15:55:15.195Z,45.03
2019-05-19T15:57:44.631Z,42.64
2019-05-19T16:00:14.747Z,42.48
2019-05-19T16:02:44.172Z,44.13
2019-05-19T16:05:13.708Z,43.80
2019-05-19T16:07:43.175Z,43.62
2019-05-19T16:10:13.618Z,43.58
2019-05-19T16:12:43.115Z,42.65
2019-05-19T16:15:13.265Z,42.88
2019-05-19T16:17:42.661Z,43.48
2019-05-19T16:20:12.644Z,44.07
2019-05-19T16:22:42.032Z,44.82
2019-05-19T16:25:11.889Z,45.68
2019-05-19T16:27:41.356Z,45.66
2019-05-19T16:30:11.417Z,45.78
2019-05-19T16:32:40.810Z,44.84
2019-05-19T16:35:10.728Z,45.33
2019-05-19T16:37:40.264Z,45.16
2019-05-19T16:40:10.015Z,46.32
2019-05-19T16:42:39.420Z,45.32
2019-05-19T16:45:09.189Z,45.91
2019-05-19T16:47:38.592Z,45.77
2019-05-19T16:50:09.553Z,46.34
2019-05-19T16:52:38.960Z,45.34
2019-05-19T16:55:22.532Z,45.85
2019-05-19T16:57:51.930Z,46.85
2019-05-19T17:00:21.986Z,47.68
2019-05-19T17:02:51.449Z,47.89
2019-05-19T17:05:20.954Z,48.46
2019-05-19T17:07:50.431Z,47.29
2019-05-19T17:10:20.288Z,47.50
2019-05-19T17:12:49.693Z,48.35
2019-05-19T17:15:19.448Z,47.73
2019-05-19T17:17:48.845Z,47.65
2019-05-19T17:20:18.708Z,47.37
2019-05-19T17:22:48.105Z,47.91
2019-05-19T17:25:18.607Z,47.74
2019-05-19T17:27:47.999Z,48.24
2019-05-19T17:30:19.562Z,48.75
2019-05-19T17:32:48.948Z,48.66
2019-05-19T17:35:18.632Z,48.40
2019-05-19T17:37:48.091Z,47.84
2019-05-19T17:40:18.012Z,47.64
2019-05-19T17:42:47.421Z,47.54
2019-05-19T17:45:16.981Z,47.30
2019-05-19T17:47:46.454Z,47.12
2019-05-19T17:50:17.760Z,46.82
2019-05-19T17:52:47.225Z,47.00
2019-05-19T17:55:16.805Z,47.02
2019-05-19T17:57:46.731Z,47.19
2019-05-19T18:00:19.207Z,48.13
2019-05-19T18:02:48.616Z,48.40
2019-05-19T18:05:18.042Z,48.07
2019-05-19T18:07:47.433Z,48.60
2019-05-19T18:10:17.851Z,48.63
2019-05-19T18:12:47.252Z,49.52
2019-05-19T18:15:16.743Z,49.28
2019-05-19T18:17:46.198Z,49.24
2019-05-19T18:20:23.342Z,49.11
2019-05-19T18:22:47.068Z,49.38
2019-05-19T18:25:16.552Z,49.86
2019-05-19T18:27:45.952Z,50.30
2019-05-19T18:30:15.705Z,51.17
2019-05-19T18:32:45.110Z,51.93
2019-05-19T18:35:14.522Z,52.76
2019-05-19T18:37:43.920Z,53.30
2019-05-19T18:40:13.596Z,53.76
2019-05-19T18:42:46.298Z,54.21
2019-05-19T18:45:15.697Z,54.18
2019-05-19T18:47:45.109Z,54.81
2019-05-19T18:50:14.642Z,55.17
2019-05-19T18:52:44.063Z,55.46
2019-05-19T18:55:13.804Z,55.98
2019-05-19T18:57:43.222Z,56.54
2019-05-19T19:00:13.054Z,56.60
2019-05-19T19:02:42.543Z,56.79
2019-05-19T19:05:12.062Z,57.12
2019-05-19T19:07:48.852Z,57.42
2019-05-19T19:10:18.317Z,57.63
2019-05-19T19:12:48.117Z,57.31
2019-05-19T19:15:17.581Z,57.43
2019-05-19T19:17:47.027Z,57.65
2019-05-19T19:20:16.565Z,58.12
2019-05-19T19:22:45.979Z,58.50
2019-05-19T19:25:15.613Z,58.51
2019-05-19T19:27:45.039Z,58.53
2019-05-19T19:30:15.473Z,58.35
2019-05-19T19:32:44.980Z,58.91
2019-05-19T19:35:17.589Z,58.94
2019-05-19T19:37:47.027Z,59.11
2019-05-19T19:40:19.489Z,59.54
2019-05-19T19:42:48.900Z,59.67
2019-05-19T19:45:18.410Z,59.67
2019-05-19T19:47:47.820Z,60.39
2019-05-19T19:50:17.238Z,60.53
2019-05-19T19:52:46.656Z,60.50
2019-05-19T19:55:16.047Z,61.04
2019-05-19T19:57:45.481Z,61.14
2019-05-19T20:00:18.599Z,61.71
2019-05-19T20:02:47.783Z,61.99
2019-05-19T20:05:17.216Z,62.47
2019-05-19T20:07:46.634Z,62.90
2019-05-19T20:10:16.025Z,62.86
2019-05-19T20:12:45.519Z,63.17
2019-05-19T20:15:15.856Z,63.26
2019-05-19T20:17:45.265Z,63.97
2019-05-19T20:20:14.663Z,64.24
2019-05-19T20:22:44.169Z,64.68
2019-05-19T20:25:13.638Z,64.71
2019-05-19T20:27:43.742Z,65.08
2019-05-19T20:30:13.421Z,64.89
2019-05-19T20:32:42.836Z,64.92
2019-05-19T20:35:12.290Z,65.10
2019-05-19T20:37:41.705Z,65.26
2019-05-19T20:40:12.628Z,65.45
2019-05-19T20:42:42.158Z,65.68
2019-05-19T20:45:12.235Z,65.42
2019-05-19T20:47:41.664Z,65.15
2019-05-19T20:50:12.212Z,64.59
2019-05-19T20:52:41.778Z,64.46
2019-05-19T20:55:11.338Z,64.48
2019-05-19T20:57:40.799Z,65.50
2019-05-19T21:00:11.901Z,65.92
2019-05-19T21:02:41.308Z,67.73
2019-05-19T21:05:11.095Z,69.90
2019-05-19T21:07:40.474Z,70.80
2019-05-19T21:10:11.040Z,73.04
2019-05-19T21:12:40.437Z,74.16
2019-05-19T21:15:10.195Z,76.17
2019-05-19T21:17:41.355Z,76.01
2019-05-19T21:20:11.114Z,74.20
2019-05-19T21:22:40.565Z,73.34
2019-05-19T21:25:10.254Z,74.40
2019-05-19T21:27:39.841Z,73.96
2019-05-19T21:30:09.502Z,76.23
2019-05-19T21:32:38.912Z,75.31
2019-05-19T21:35:08.531Z,75.50
2019-05-19T21:37:37.939Z,75.51
2019-05-19T21:40:08.089Z,76.83
2019-05-19T21:42:37.503Z,76.78
2019-05-19T21:45:07.968Z,75.47
2019-05-19T21:47:37.440Z,75.49
2019-05-19T21:50:07.684Z,75.65
2019-05-19T21:52:37.088Z,78.11
2019-05-19T21:55:08.239Z,77.66
2019-05-19T21:57:37.663Z,77.81
2019-05-19T22:00:09.948Z,77.61
2019-05-19T22:02:39.422Z,79.06
2019-05-19T22:05:09.070Z,79.40
2019-05-19T22:07:45.776Z,78.42
2019-05-19T22:10:15.266Z,77.37
2019-05-19T22:12:44.691Z,75.80
2019-05-19T22:15:14.559Z,76.12
2019-05-19T22:17:43.963Z,75.21
2019-05-19T22:20:13.616Z,74.33
2019-05-19T22:22:43.014Z,75.51
2019-05-19T22:25:12.759Z,77.25
2019-05-19T22:27:42.226Z,78.66
2019-05-19T22:30:11.984Z,78.03
2019-05-19T22:32:41.645Z,76.92
2019-05-19T22:35:13.346Z,76.97
2019-05-19T22:37:42.816Z,77.63
2019-05-19T22:40:12.973Z,78.25
2019-05-19T22:42:42.406Z,78.53
2019-05-19T22:45:12.621Z,78.42
2019-05-19T22:47:42.012Z,79.33
2019-05-19T22:50:11.657Z,79.39
2019-05-19T22:52:41.051Z,79.78
2019-05-19T22:55:10.809Z,80.63
2019-05-19T22:57:40.283Z,80.81
2019-05-19T23:00:11.421Z,80.60
2019-05-19T23:02:40.815Z,80.89
2019-05-19T23:05:10.784Z,80.99
2019-05-19T23:07:40.197Z,80.78
2019-05-19T23:10:09.962Z,81.34
2019-05-19T23:12:39.323Z,81.05
2019-05-19T23:15:09.574Z,81.45
2019-05-19T23:17:39.040Z,81.37
2019-05-19T23:20:08.796Z,81.69
2019-05-19T23:22:38.221Z,81.47
2019-05-19T23:25:07.892Z,81.22
2019-05-19T23:27:37.302Z,80.96
2019-05-19T23:30:10.102Z,80.76
2019-05-19T23:32:39.581Z,80.07
2019-05-19T23:35:09.010Z,80.01
2019-05-19T23:37:38.421Z,79.90
2019-05-19T23:40:09.257Z,79.72
2019-05-19T23:42:38.726Z,80.74
2019-05-19T23:45:08.478Z,80.70
2019-05-19T23:47:37.888Z,80.76
2019-05-19T23:50:07.614Z,79.85
2019-05-19T23:52:37.020Z,79.36
2019-05-19T23:55:07.764Z,79.77
2019-05-19T23:57:37.184Z,80.49
